McDowell, VA (24458)

1:41 AM EST on February 09, 2016 (GMT -0500)
KVAMONTE3 | | Change Station
CLOSE
Current Station
Personal Weather Station
Location: Monterey, VA
Elevation: 2924 ft
Nearby Weather Stations
Active Advisory: Winter Weather Advisory

Elev 2924 ft 38.41 °N, 79.58 °W | Updated 1 minute ago

Overcast
Overcast
26.6 °F
Feels Like 27 °F
N
3.0
Wind Variable Wind from SW
Gusts 3.0 mph

Today
High -- | Low -- °F
--% Chance of Precip.
Yesterday
High -- | Low -- °F
Precip. -- in
Pressure 29.57 in
Visibility 4.0 miles
Clouds Mostly Cloudy 3000 ft
Mostly Cloudy 3800 ft
Overcast 6500 ft
Windchill 27 °F
Dew Point 24 °F
Humidity 88%
Rainfall 0.00 in
Snow Depth Not available.
7:15 AM 5:49 PM
New Moon, 1% visible
METAR KSHD 090615Z AUTO 00000KT 4SM BR BKN030 BKN038 OVC065 01/00 A2957 RMK AO2 T00080000
Pressure 29.57 in
Visibility 4.0 miles
Clouds Mostly Cloudy 3000 ft
Mostly Cloudy 3800 ft
Overcast 6500 ft
Windchill 27 °F
Dew Point 24 °F
Humidity 88%
Rainfall 0.00 in
Snow Depth Not available.
7:15 AM 5:49 PM
New Moon, 1% visible
METAR KSHD 090615Z AUTO 00000KT 4SM BR BKN030 BKN038 OVC065 01/00 A2957 RMK AO2 T00080000

10-Day Weather Forecast

Almanac

Astronomy

Feb. 09, 2016 Rise Set
Actual Time
Civil Twilight
Nautical Twilight
Astronomical Twilight
Moon
Length of Visible Light
Length of Day
Tomorrow will be .
, % of the Moon is Illuminated

Today's Extremes

State Highs State Lows

Community

WunderPhotos

Upload Photos

1,891,571 photos uploaded!

WunderBlog® & News

Nearby

Air Quality

  Air Quality AQ Index Pollutant
Not available.

Snow Depth

Station Depth Elevation

Earthquake Activity

City Distance Mag. Time & Date
Minimum magnitude displayed is 2.5.

Coastal Water Temperatures

Place Temperature

Stations

Nearby Weather Stations

Station Location Temp. Windchill Dew Point Humidity Wind Precip. Elev Updated Type
                   

Watches & Warnings

Winter Weather Advisory
Issued: 6:11 PM EST Feb. 8, 2016 – National Weather Service

... Winter Weather Advisory remains in effect until midnight EST
Tuesday night...

* precipitation type... snow.

* Accumulations... snow accumulation of 2 to 5 inches.

* Timing... snow will develop this evening and may become heavy at
times.

* Impacts... snow covered roads and travel disruptions.

* Winds... west 5 to 15 mph with gusts up to 25 mph.

* Temperatures... in the lower 30s.

Precautionary/preparedness actions...

A Winter Weather Advisory for snow means that periods of snow
will cause primarily travel difficulties. Be prepared for snow
covered roads and limited visibilities... and use caution while
driving.